sensor_id;sensor_type;location;lat;lon;timestamp;P1;durP1;ratioP1;P2;durP2;ratioP2
72437;SDS011;60444;43.534;-5.674;2023-01-13T00:01:44;10.32;;;3.80;;
72437;SDS011;60444;43.534;-5.674;2023-01-13T00:04:10;10.63;;;4.03;;
72437;SDS011;60444;43.534;-5.674;2023-01-13T00:06:35;9.07;;;3.77;;
72437;SDS011;60444;43.534;-5.674;2023-01-13T00:09:01;10.50;;;3.47;;
72437;SDS011;60444;43.534;-5.674;2023-01-13T00:11:27;11.97;;;3.50;;
72437;SDS011;60444;43.534;-5.674;2023-01-13T00:13:52;9.75;;;3.78;;
72437;SDS011;60444;43.534;-5.674;2023-01-13T00:16:18;10.17;;;3.70;;
72437;SDS011;60444;43.534;-5.674;2023-01-13T00:18:45;9.38;;;3.70;;
72437;SDS011;60444;43.534;-5.674;2023-01-13T00:21:21;9.57;;;3.60;;
72437;SDS011;60444;43.534;-5.674;2023-01-13T00:23:48;8.85;;;3.22;;
72437;SDS011;60444;43.534;-5.674;2023-01-13T00:26:16;9.10;;;3.78;;
72437;SDS011;60444;43.534;-5.674;2023-01-13T00:28:48;7.83;;;3.53;;
72437;SDS011;60444;43.534;-5.674;2023-01-13T00:31:15;8.73;;;3.13;;
72437;SDS011;60444;43.534;-5.674;2023-01-13T00:33:42;10.23;;;3.50;;
72437;SDS011;60444;43.534;-5.674;2023-01-13T00:36:08;6.83;;;3.10;;
72437;SDS011;60444;43.534;-5.674;2023-01-13T00:38:37;11.25;;;3.78;;
72437;SDS011;60444;43.534;-5.674;2023-01-13T00:41:05;9.48;;;3.90;;
72437;SDS011;60444;43.534;-5.674;2023-01-13T00:43:34;8.47;;;3.40;;
72437;SDS011;60444;43.534;-5.674;2023-01-13T00:46:01;9.27;;;3.40;;
72437;SDS011;60444;43.534;-5.674;2023-01-13T00:48:28;8.70;;;3.42;;
72437;SDS011;60444;43.534;-5.674;2023-01-13T00:50:58;8.85;;;2.88;;
72437;SDS011;60444;43.534;-5.674;2023-01-13T00:53:27;8.20;;;3.10;;
72437;SDS011;60444;43.534;-5.674;2023-01-13T00:56:04;9.30;;;3.20;;
72437;SDS011;60444;43.534;-5.674;2023-01-13T00:58:32;7.53;;;2.90;;
72437;SDS011;60444;43.534;-5.674;2023-01-13T01:00:59;8.23;;;3.25;;
72437;SDS011;60444;43.534;-5.674;2023-01-13T01:03:26;9.25;;;3.65;;
72437;SDS011;60444;43.534;-5.674;2023-01-13T01:05:51;8.93;;;3.50;;
72437;SDS011;60444;43.534;-5.674;2023-01-13T01:08:17;8.07;;;2.83;;
72437;SDS011;60444;43.534;-5.674;2023-01-13T01:10:42;8.05;;;3.25;;
72437;SDS011;60444;43.534;-5.674;2023-01-13T01:13:08;8.50;;;2.73;;
72437;SDS011;60444;43.534;-5.674;2023-01-13T01:15:38;8.45;;;3.00;;
72437;SDS011;60444;43.534;-5.674;2023-01-13T01:18:06;9.13;;;3.47;;
72437;SDS011;60444;43.534;-5.674;2023-01-13T01:20:31;8.50;;;2.93;;
72437;SDS011;60444;43.534;-5.674;2023-01-13T01:22:57;10.00;;;2.93;;
72437;SDS011;60444;43.534;-5.674;2023-01-13T01:25:22;6.77;;;2.80;;
72437;SDS011;60444;43.534;-5.674;2023-01-13T01:27:47;9.27;;;2.80;;
72437;SDS011;60444;43.534;-5.674;2023-01-13T01:30:13;6.63;;;2.23;;
72437;SDS011;60444;43.534;-5.674;2023-01-13T01:32:39;7.87;;;2.77;;
72437;SDS011;60444;43.534;-5.674;2023-01-13T01:35:04;6.90;;;2.33;;
72437;SDS011;60444;43.534;-5.674;2023-01-13T01:37:30;6.95;;;2.60;;
72437;SDS011;60444;43.534;-5.674;2023-01-13T01:39:56;8.83;;;3.10;;
72437;SDS011;60444;43.534;-5.674;2023-01-13T01:42:21;7.83;;;2.70;;
72437;SDS011;60444;43.534;-5.674;2023-01-13T01:45:19;7.93;;;2.45;;
72437;SDS011;60444;43.534;-5.674;2023-01-13T01:47:47;6.88;;;2.30;;
72437;SDS011;60444;43.534;-5.674;2023-01-13T01:50:17;6.87;;;2.70;;
72437;SDS011;60444;43.534;-5.674;2023-01-13T01:52:45;6.93;;;2.00;;
72437;SDS011;60444;43.534;-5.674;2023-01-13T01:55:25;6.28;;;2.10;;
72437;SDS011;60444;43.534;-5.674;2023-01-13T02:00:24;7.32;;;2.47;;
72437;SDS011;60444;43.534;-5.674;2023-01-13T02:02:52;6.77;;;2.17;;
72437;SDS011;60444;43.534;-5.674;2023-01-13T02:05:18;7.90;;;2.22;;
72437;SDS011;60444;43.534;-5.674;2023-01-13T02:07:44;8.68;;;2.50;;
72437;SDS011;60444;43.534;-5.674;2023-01-13T02:10:15;6.25;;;1.90;;
72437;SDS011;60444;43.534;-5.674;2023-01-13T02:12:44;6.70;;;2.70;;
72437;SDS011;60444;43.534;-5.674;2023-01-13T02:15:11;6.90;;;1.95;;
72437;SDS011;60444;43.534;-5.674;2023-01-13T02:31:57;5.80;;;2.03;;
72437;SDS011;60444;43.534;-5.674;2023-01-13T02:34:35;6.05;;;2.00;;
72437;SDS011;60444;43.534;-5.674;2023-01-13T02:37:08;6.15;;;2.20;;
72437;SDS011;60444;43.534;-5.674;2023-01-13T02:39:54;5.17;;;1.60;;
72437;SDS011;60444;43.534;-5.674;2023-01-13T02:42:26;6.07;;;1.65;;
72437;SDS011;60444;43.534;-5.674;2023-01-13T02:45:17;6.53;;;2.00;;
72437;SDS011;60444;43.534;-5.674;2023-01-13T02:47:51;6.47;;;2.00;;
72437;SDS011;60444;43.534;-5.674;2023-01-13T02:50:21;4.72;;;1.50;;
72437;SDS011;60444;43.534;-5.674;2023-01-13T02:53:10;6.20;;;1.57;;
72437;SDS011;60444;43.534;-5.674;2023-01-13T02:55:44;5.78;;;1.70;;
72437;SDS011;60444;43.534;-5.674;2023-01-13T02:58:14;5.70;;;1.80;;
72437;SDS011;60444;43.534;-5.674;2023-01-13T03:00:45;6.82;;;1.70;;
72437;SDS011;60444;43.534;-5.674;2023-01-13T03:03:13;6.40;;;1.75;;
72437;SDS011;60444;43.534;-5.674;2023-01-13T03:05:41;4.77;;;1.37;;
72437;SDS011;60444;43.534;-5.674;2023-01-13T03:25:06;6.65;;;1.30;;
72437;SDS011;60444;43.534;-5.674;2023-01-13T03:27:37;5.82;;;1.45;;
72437;SDS011;60444;43.534;-5.674;2023-01-13T03:30:14;4.97;;;1.40;;
72437;SDS011;60444;43.534;-5.674;2023-01-13T03:32:43;5.33;;;1.40;;
72437;SDS011;60444;43.534;-5.674;2023-01-13T03:35:32;4.53;;;1.33;;
72437;SDS011;60444;43.534;-5.674;2023-01-13T03:40:38;4.63;;;1.00;;
72437;SDS011;60444;43.534;-5.674;2023-01-13T03:43:09;3.80;;;0.90;;
72437;SDS011;60444;43.534;-5.674;2023-01-13T03:46:00;3.87;;;0.90;;
72437;SDS011;60444;43.534;-5.674;2023-01-13T03:48:31;5.22;;;1.35;;
72437;SDS011;60444;43.534;-5.674;2023-01-13T03:51:04;4.38;;;1.10;;
72437;SDS011;60444;43.534;-5.674;2023-01-13T03:53:33;4.25;;;1.20;;
72437;SDS011;60444;43.534;-5.674;2023-01-13T03:56:11;4.70;;;1.27;;
72437;SDS011;60444;43.534;-5.674;2023-01-13T03:58:42;4.03;;;1.00;;
72437;SDS011;60444;43.534;-5.674;2023-01-13T04:04:09;6.85;;;1.58;;
72437;SDS011;60444;43.534;-5.674;2023-01-13T04:06:57;4.18;;;1.00;;
72437;SDS011;60444;43.534;-5.674;2023-01-13T04:09:33;4.53;;;1.40;;
72437;SDS011;60444;43.534;-5.674;2023-01-13T04:14:40;3.50;;;0.93;;
72437;SDS011;60444;43.534;-5.674;2023-01-13T04:17:07;4.15;;;1.27;;
72437;SDS011;60444;43.534;-5.674;2023-01-13T04:19:33;3.50;;;0.90;;
72437;SDS011;60444;43.534;-5.674;2023-01-13T04:21:58;4.07;;;0.90;;
72437;SDS011;60444;43.534;-5.674;2023-01-13T04:24:24;4.87;;;1.00;;
72437;SDS011;60444;43.534;-5.674;2023-01-13T04:26:50;3.20;;;0.60;;
72437;SDS011;60444;43.534;-5.674;2023-01-13T04:29:16;3.83;;;0.97;;
72437;SDS011;60444;43.534;-5.674;2023-01-13T04:31:41;3.88;;;0.77;;
72437;SDS011;60444;43.534;-5.674;2023-01-13T04:34:08;5.17;;;0.90;;
72437;SDS011;60444;43.534;-5.674;2023-01-13T04:36:34;2.78;;;0.50;;
72437;SDS011;60444;43.534;-5.674;2023-01-13T04:39:00;3.10;;;0.60;;
72437;SDS011;60444;43.534;-5.674;2023-01-13T04:41:25;4.30;;;0.60;;
72437;SDS011;60444;43.534;-5.674;2023-01-13T04:43:51;2.83;;;0.70;;
72437;SDS011;60444;43.534;-5.674;2023-01-13T04:46:16;4.30;;;0.57;;
72437;SDS011;60444;43.534;-5.674;2023-01-13T04:48:42;2.83;;;0.50;;
72437;SDS011;60444;43.534;-5.674;2023-01-13T04:51:07;2.35;;;0.40;;
72437;SDS011;60444;43.534;-5.674;2023-01-13T04:53:33;2.83;;;0.47;;
72437;SDS011;60444;43.534;-5.674;2023-01-13T04:55:58;1.47;;;0.40;;
72437;SDS011;60444;43.534;-5.674;2023-01-13T04:58:24;2.87;;;0.60;;
72437;SDS011;60444;43.534;-5.674;2023-01-13T05:00:49;2.23;;;0.47;;
72437;SDS011;60444;43.534;-5.674;2023-01-13T05:03:15;1.70;;;0.52;;
72437;SDS011;60444;43.534;-5.674;2023-01-13T05:05:41;2.77;;;0.43;;
72437;SDS011;60444;43.534;-5.674;2023-01-13T05:08:07;2.30;;;0.60;;
72437;SDS011;60444;43.534;-5.674;2023-01-13T05:10:33;3.97;;;0.60;;
72437;SDS011;60444;43.534;-5.674;2023-01-13T05:12:58;3.03;;;0.50;;
72437;SDS011;60444;43.534;-5.674;2023-01-13T05:15:42;4.32;;;0.60;;
72437;SDS011;60444;43.534;-5.674;2023-01-13T05:18:27;3.00;;;0.50;;
72437;SDS011;60444;43.534;-5.674;2023-01-13T05:20:55;3.03;;;0.60;;
72437;SDS011;60444;43.534;-5.674;2023-01-13T05:23:20;4.40;;;0.80;;
72437;SDS011;60444;43.534;-5.674;2023-01-13T05:26:04;4.05;;;0.68;;
72437;SDS011;60444;43.534;-5.674;2023-01-13T05:28:31;5.00;;;1.00;;
72437;SDS011;60444;43.534;-5.674;2023-01-13T05:30:57;4.30;;;0.85;;
72437;SDS011;60444;43.534;-5.674;2023-01-13T05:33:23;3.20;;;0.60;;
72437;SDS011;60444;43.534;-5.674;2023-01-13T05:35:49;3.57;;;0.80;;
72437;SDS011;60444;43.534;-5.674;2023-01-13T05:38:14;3.73;;;0.60;;
72437;SDS011;60444;43.534;-5.674;2023-01-13T05:40:42;3.30;;;0.50;;
72437;SDS011;60444;43.534;-5.674;2023-01-13T05:43:26;4.45;;;1.15;;
72437;SDS011;60444;43.534;-5.674;2023-01-13T05:45:55;4.78;;;0.52;;
72437;SDS011;60444;43.534;-5.674;2023-01-13T05:48:26;3.17;;;0.60;;
72437;SDS011;60444;43.534;-5.674;2023-01-13T05:50:53;2.60;;;0.73;;
72437;SDS011;60444;43.534;-5.674;2023-01-13T05:53:19;8.15;;;0.90;;
72437;SDS011;60444;43.534;-5.674;2023-01-13T05:55:45;5.60;;;0.88;;
72437;SDS011;60444;43.534;-5.674;2023-01-13T05:58:12;4.93;;;0.80;;
72437;SDS011;60444;43.534;-5.674;2023-01-13T06:00:39;4.43;;;0.80;;
72437;SDS011;60444;43.534;-5.674;2023-01-13T06:03:05;4.60;;;0.90;;
72437;SDS011;60444;43.534;-5.674;2023-01-13T06:05:31;3.63;;;0.83;;
72437;SDS011;60444;43.534;-5.674;2023-01-13T06:07:57;11.80;;;1.40;;
72437;SDS011;60444;43.534;-5.674;2023-01-13T06:10:24;5.82;;;1.13;;
72437;SDS011;60444;43.534;-5.674;2023-01-13T06:12:51;7.37;;;1.40;;
72437;SDS011;60444;43.534;-5.674;2023-01-13T06:15:17;5.07;;;0.90;;
72437;SDS011;60444;43.534;-5.674;2023-01-13T06:17:42;5.72;;;1.30;;
72437;SDS011;60444;43.534;-5.674;2023-01-13T06:20:08;4.00;;;0.80;;
72437;SDS011;60444;43.534;-5.674;2023-01-13T06:22:36;5.68;;;1.02;;
72437;SDS011;60444;43.534;-5.674;2023-01-13T06:25:07;5.00;;;0.90;;
72437;SDS011;60444;43.534;-5.674;2023-01-13T06:27:45;5.22;;;0.80;;
72437;SDS011;60444;43.534;-5.674;2023-01-13T06:30:12;6.05;;;1.13;;
72437;SDS011;60444;43.534;-5.674;2023-01-13T06:32:39;8.77;;;1.50;;
72437;SDS011;60444;43.534;-5.674;2023-01-13T06:35:09;4.43;;;1.10;;
72437;SDS011;60444;43.534;-5.674;2023-01-13T06:37:38;6.03;;;1.35;;
72437;SDS011;60444;43.534;-5.674;2023-01-13T06:40:07;5.60;;;1.30;;
72437;SDS011;60444;43.534;-5.674;2023-01-13T06:42:34;7.80;;;1.30;;
72437;SDS011;60444;43.534;-5.674;2023-01-13T06:45:19;7.93;;;1.23;;
72437;SDS011;60444;43.534;-5.674;2023-01-13T06:47:46;5.68;;;1.25;;
72437;SDS011;60444;43.534;-5.674;2023-01-13T06:50:12;3.88;;;1.00;;
72437;SDS011;60444;43.534;-5.674;2023-01-13T06:52:37;7.63;;;1.27;;
72437;SDS011;60444;43.534;-5.674;2023-01-13T06:55:03;6.00;;;1.00;;
72437;SDS011;60444;43.534;-5.674;2023-01-13T06:57:28;8.45;;;1.75;;
72437;SDS011;60444;43.534;-5.674;2023-01-13T06:59:54;5.40;;;0.87;;
72437;SDS011;60444;43.534;-5.674;2023-01-13T07:02:19;4.87;;;1.20;;
72437;SDS011;60444;43.534;-5.674;2023-01-13T07:04:45;4.13;;;0.75;;
72437;SDS011;60444;43.534;-5.674;2023-01-13T07:07:11;4.03;;;1.10;;
72437;SDS011;60444;43.534;-5.674;2023-01-13T07:09:38;4.30;;;0.90;;
72437;SDS011;60444;43.534;-5.674;2023-01-13T07:12:03;6.65;;;0.80;;
72437;SDS011;60444;43.534;-5.674;2023-01-13T07:14:29;5.33;;;1.10;;
72437;SDS011;60444;43.534;-5.674;2023-01-13T07:17:13;5.57;;;1.30;;
72437;SDS011;60444;43.534;-5.674;2023-01-13T07:19:38;4.50;;;0.80;;
72437;SDS011;60444;43.534;-5.674;2023-01-13T07:22:04;6.13;;;0.90;;
72437;SDS011;60444;43.534;-5.674;2023-01-13T07:24:29;4.83;;;1.10;;
72437;SDS011;60444;43.534;-5.674;2023-01-13T07:26:55;4.77;;;0.90;;
72437;SDS011;60444;43.534;-5.674;2023-01-13T07:29:20;4.03;;;0.80;;
72437;SDS011;60444;43.534;-5.674;2023-01-13T07:31:46;6.65;;;1.08;;
72437;SDS011;60444;43.534;-5.674;2023-01-13T07:34:12;9.00;;;1.30;;
72437;SDS011;60444;43.534;-5.674;2023-01-13T07:36:38;5.80;;;1.33;;
72437;SDS011;60444;43.534;-5.674;2023-01-13T07:39:04;3.97;;;0.87;;
72437;SDS011;60444;43.534;-5.674;2023-01-13T07:41:29;6.07;;;1.58;;
72437;SDS011;60444;43.534;-5.674;2023-01-13T07:44:14;6.07;;;0.93;;
72437;SDS011;60444;43.534;-5.674;2023-01-13T07:46:39;6.70;;;1.30;;
72437;SDS011;60444;43.534;-5.674;2023-01-13T07:49:05;4.60;;;0.98;;
72437;SDS011;60444;43.534;-5.674;2023-01-13T07:51:31;4.40;;;0.90;;
72437;SDS011;60444;43.534;-5.674;2023-01-13T07:54:00;5.70;;;1.00;;
72437;SDS011;60444;43.534;-5.674;2023-01-13T07:56:26;5.27;;;1.03;;
72437;SDS011;60444;43.534;-5.674;2023-01-13T07:58:51;5.53;;;1.00;;
72437;SDS011;60444;43.534;-5.674;2023-01-13T08:01:17;7.30;;;1.50;;
72437;SDS011;60444;43.534;-5.674;2023-01-13T08:03:43;4.00;;;1.05;;
72437;SDS011;60444;43.534;-5.674;2023-01-13T08:06:12;7.05;;;1.42;;
72437;SDS011;60444;43.534;-5.674;2023-01-13T08:08:38;5.17;;;0.80;;
72437;SDS011;60444;43.534;-5.674;2023-01-13T08:11:05;5.20;;;1.13;;
72437;SDS011;60444;43.534;-5.674;2023-01-13T08:13:31;3.97;;;1.10;;
72437;SDS011;60444;43.534;-5.674;2023-01-13T08:16:05;3.47;;;0.83;;
72437;SDS011;60444;43.534;-5.674;2023-01-13T08:18:32;5.75;;;1.33;;
72437;SDS011;60444;43.534;-5.674;2023-01-13T08:21:02;5.35;;;1.00;;
72437;SDS011;60444;43.534;-5.674;2023-01-13T08:23:29;10.43;;;1.60;;
72437;SDS011;60444;43.534;-5.674;2023-01-13T08:25:59;7.77;;;1.70;;
72437;SDS011;60444;43.534;-5.674;2023-01-13T08:28:26;4.97;;;1.13;;
72437;SDS011;60444;43.534;-5.674;2023-01-13T08:30:52;4.97;;;1.20;;
72437;SDS011;60444;43.534;-5.674;2023-01-13T08:33:18;5.43;;;1.00;;
72437;SDS011;60444;43.534;-5.674;2023-01-13T08:35:53;5.82;;;1.52;;
72437;SDS011;60444;43.534;-5.674;2023-01-13T08:38:19;4.83;;;1.00;;
72437;SDS011;60444;43.534;-5.674;2023-01-13T08:40:45;7.20;;;1.20;;
72437;SDS011;60444;43.534;-5.674;2023-01-13T08:43:10;4.68;;;1.02;;
72437;SDS011;60444;43.534;-5.674;2023-01-13T08:45:36;5.30;;;1.20;;
72437;SDS011;60444;43.534;-5.674;2023-01-13T08:48:02;5.47;;;1.10;;
72437;SDS011;60444;43.534;-5.674;2023-01-13T08:50:27;4.30;;;0.80;;
72437;SDS011;60444;43.534;-5.674;2023-01-13T08:52:53;4.80;;;0.80;;
72437;SDS011;60444;43.534;-5.674;2023-01-13T08:55:19;7.82;;;1.35;;
72437;SDS011;60444;43.534;-5.674;2023-01-13T08:57:44;4.73;;;1.00;;
72437;SDS011;60444;43.534;-5.674;2023-01-13T09:00:10;5.50;;;1.10;;
72437;SDS011;60444;43.534;-5.674;2023-01-13T09:02:37;6.90;;;1.33;;
72437;SDS011;60444;43.534;-5.674;2023-01-13T09:05:03;5.82;;;1.40;;
72437;SDS011;60444;43.534;-5.674;2023-01-13T09:07:32;4.60;;;1.02;;
72437;SDS011;60444;43.534;-5.674;2023-01-13T09:10:00;6.43;;;1.17;;
72437;SDS011;60444;43.534;-5.674;2023-01-13T09:12:26;9.10;;;1.60;;
72437;SDS011;60444;43.534;-5.674;2023-01-13T09:15:11;5.20;;;1.13;;
72437;SDS011;60444;43.534;-5.674;2023-01-13T09:17:36;4.45;;;1.00;;
72437;SDS011;60444;43.534;-5.674;2023-01-13T09:20:04;6.17;;;1.10;;
72437;SDS011;60444;43.534;-5.674;2023-01-13T09:22:34;5.18;;;1.00;;
72437;SDS011;60444;43.534;-5.674;2023-01-13T09:25:01;6.10;;;1.57;;
72437;SDS011;60444;43.534;-5.674;2023-01-13T09:27:27;8.38;;;1.90;;
72437;SDS011;60444;43.534;-5.674;2023-01-13T09:29:53;6.97;;;1.60;;
72437;SDS011;60444;43.534;-5.674;2023-01-13T09:32:18;6.50;;;1.93;;
72437;SDS011;60444;43.534;-5.674;2023-01-13T09:34:44;9.70;;;1.97;;
72437;SDS011;60444;43.534;-5.674;2023-01-13T09:37:34;6.70;;;1.63;;
72437;SDS011;60444;43.534;-5.674;2023-01-13T09:40:06;5.55;;;1.83;;
72437;SDS011;60444;43.534;-5.674;2023-01-13T09:46:11;13.63;;;2.87;;
72437;SDS011;60444;43.534;-5.674;2023-01-13T09:49:02;10.10;;;2.33;;
72437;SDS011;60444;43.534;-5.674;2023-01-13T09:51:29;10.35;;;2.50;;
72437;SDS011;60444;43.534;-5.674;2023-01-13T09:54:05;10.95;;;2.50;;
72437;SDS011;60444;43.534;-5.674;2023-01-13T09:56:40;9.05;;;2.10;;
72437;SDS011;60444;43.534;-5.674;2023-01-13T09:59:07;10.90;;;2.27;;
72437;SDS011;60444;43.534;-5.674;2023-01-13T10:01:57;7.00;;;1.70;;
72437;SDS011;60444;43.534;-5.674;2023-01-13T10:04:26;7.20;;;1.83;;
72437;SDS011;60444;43.534;-5.674;2023-01-13T10:06:53;6.70;;;1.47;;
72437;SDS011;60444;43.534;-5.674;2023-01-13T10:09:27;6.70;;;1.65;;
72437;SDS011;60444;43.534;-5.674;2023-01-13T10:11:58;5.50;;;1.63;;
72437;SDS011;60444;43.534;-5.674;2023-01-13T10:14:50;5.88;;;1.50;;
72437;SDS011;60444;43.534;-5.674;2023-01-13T10:28:23;6.13;;;1.58;;
72437;SDS011;60444;43.534;-5.674;2023-01-13T10:30:49;5.95;;;1.27;;
72437;SDS011;60444;43.534;-5.674;2023-01-13T10:33:22;5.73;;;1.63;;
72437;SDS011;60444;43.534;-5.674;2023-01-13T10:35:53;7.70;;;1.95;;
72437;SDS011;60444;43.534;-5.674;2023-01-13T10:41:38;9.02;;;2.08;;
72437;SDS011;60444;43.534;-5.674;2023-01-13T10:44:05;9.33;;;2.23;;
72437;SDS011;60444;43.534;-5.674;2023-01-13T10:46:55;6.40;;;1.80;;
72437;SDS011;60444;43.534;-5.674;2023-01-13T10:51:51;8.97;;;2.40;;
72437;SDS011;60444;43.534;-5.674;2023-01-13T10:54:20;10.35;;;2.72;;
72437;SDS011;60444;43.534;-5.674;2023-01-13T10:56:47;12.70;;;3.38;;
72437;SDS011;60444;43.534;-5.674;2023-01-13T11:07:33;6.65;;;1.90;;
72437;SDS011;60444;43.534;-5.674;2023-01-13T11:10:21;8.40;;;1.88;;
72437;SDS011;60444;43.534;-5.674;2023-01-13T11:13:04;6.70;;;1.53;;
72437;SDS011;60444;43.534;-5.674;2023-01-13T11:16:00;7.53;;;1.92;;
72437;SDS011;60444;43.534;-5.674;2023-01-13T11:18:45;6.53;;;1.60;;
72437;SDS011;60444;43.534;-5.674;2023-01-13T11:24:34;6.15;;;1.40;;
72437;SDS011;60444;43.534;-5.674;2023-01-13T11:27:03;8.20;;;1.70;;
72437;SDS011;60444;43.534;-5.674;2023-01-13T11:32:18;8.07;;;1.92;;
72437;SDS011;60444;43.534;-5.674;2023-01-13T11:34:47;13.13;;;2.63;;
72437;SDS011;60444;43.534;-5.674;2023-01-13T11:37:27;8.68;;;2.38;;
72437;SDS011;60444;43.534;-5.674;2023-01-13T11:40:03;5.67;;;1.50;;
72437;SDS011;60444;43.534;-5.674;2023-01-13T11:42:39;5.28;;;1.17;;
72437;SDS011;60444;43.534;-5.674;2023-01-13T11:47:38;6.22;;;1.85;;
72437;SDS011;60444;43.534;-5.674;2023-01-13T11:50:11;6.57;;;1.50;;
72437;SDS011;60444;43.534;-5.674;2023-01-13T11:55:15;5.55;;;1.60;;
72437;SDS011;60444;43.534;-5.674;2023-01-13T11:57:59;6.77;;;1.60;;
72437;SDS011;60444;43.534;-5.674;2023-01-13T12:17:29;7.72;;;2.03;;
72437;SDS011;60444;43.534;-5.674;2023-01-13T12:19:57;4.90;;;1.20;;
72437;SDS011;60444;43.534;-5.674;2023-01-13T12:22:41;5.75;;;1.60;;
72437;SDS011;60444;43.534;-5.674;2023-01-13T12:27:57;11.73;;;2.22;;
72437;SDS011;60444;43.534;-5.674;2023-01-13T12:30:29;14.35;;;2.90;;
72437;SDS011;60444;43.534;-5.674;2023-01-13T12:33:07;9.48;;;2.10;;
72437;SDS011;60444;43.534;-5.674;2023-01-13T12:35:58;10.48;;;2.38;;
72437;SDS011;60444;43.534;-5.674;2023-01-13T12:38:55;16.70;;;3.10;;
72437;SDS011;60444;43.534;-5.674;2023-01-13T12:43:59;14.75;;;2.83;;
72437;SDS011;60444;43.534;-5.674;2023-01-13T12:46:48;13.07;;;2.85;;
72437;SDS011;60444;43.534;-5.674;2023-01-13T12:49:19;18.40;;;3.45;;
72437;SDS011;60444;43.534;-5.674;2023-01-13T12:56:54;12.68;;;3.08;;
72437;SDS011;60444;43.534;-5.674;2023-01-13T13:01:46;9.30;;;2.37;;
72437;SDS011;60444;43.534;-5.674;2023-01-13T13:04:18;12.68;;;2.53;;
72437;SDS011;60444;43.534;-5.674;2023-01-13T13:07:05;10.20;;;2.58;;
72437;SDS011;60444;43.534;-5.674;2023-01-13T13:09:36;8.27;;;2.00;;
72437;SDS011;60444;43.534;-5.674;2023-01-13T13:17:59;12.13;;;2.00;;
72437;SDS011;60444;43.534;-5.674;2023-01-13T13:21:02;14.02;;;2.70;;
72437;SDS011;60444;43.534;-5.674;2023-01-13T13:26:17;12.73;;;2.85;;
72437;SDS011;60444;43.534;-5.674;2023-01-13T13:34:05;10.00;;;2.17;;
72437;SDS011;60444;43.534;-5.674;2023-01-13T13:39:43;11.95;;;2.22;;
72437;SDS011;60444;43.534;-5.674;2023-01-13T13:42:28;9.32;;;1.63;;
72437;SDS011;60444;43.534;-5.674;2023-01-13T13:45:21;7.65;;;1.73;;
72437;SDS011;60444;43.534;-5.674;2023-01-13T13:50:58;13.10;;;1.80;;
72437;SDS011;60444;43.534;-5.674;2023-01-13T13:53:29;12.43;;;2.10;;
72437;SDS011;60444;43.534;-5.674;2023-01-13T13:56:00;11.63;;;2.70;;
72437;SDS011;60444;43.534;-5.674;2023-01-13T13:58:31;9.98;;;1.92;;
72437;SDS011;60444;43.534;-5.674;2023-01-13T14:01:00;10.15;;;2.42;;
72437;SDS011;60444;43.534;-5.674;2023-01-13T14:03:31;11.13;;;1.87;;
72437;SDS011;60444;43.534;-5.674;2023-01-13T14:06:01;8.75;;;1.88;;
72437;SDS011;60444;43.534;-5.674;2023-01-13T14:08:30;12.10;;;2.15;;
72437;SDS011;60444;43.534;-5.674;2023-01-13T14:10:58;9.82;;;1.80;;
72437;SDS011;60444;43.534;-5.674;2023-01-13T14:13:30;13.43;;;2.13;;
72437;SDS011;60444;43.534;-5.674;2023-01-13T14:16:03;8.60;;;1.70;;
72437;SDS011;60444;43.534;-5.674;2023-01-13T14:18:31;10.10;;;1.85;;
72437;SDS011;60444;43.534;-5.674;2023-01-13T14:21:01;12.70;;;2.22;;
72437;SDS011;60444;43.534;-5.674;2023-01-13T14:23:36;8.20;;;1.73;;
72437;SDS011;60444;43.534;-5.674;2023-01-13T14:26:12;10.67;;;2.07;;
72437;SDS011;60444;43.534;-5.674;2023-01-13T14:28:39;11.35;;;2.40;;
72437;SDS011;60444;43.534;-5.674;2023-01-13T14:31:05;9.25;;;2.03;;
72437;SDS011;60444;43.534;-5.674;2023-01-13T14:33:37;13.50;;;2.28;;
72437;SDS011;60444;43.534;-5.674;2023-01-13T14:36:13;17.20;;;3.37;;
72437;SDS011;60444;43.534;-5.674;2023-01-13T14:38:43;12.73;;;2.50;;
72437;SDS011;60444;43.534;-5.674;2023-01-13T14:43:42;8.95;;;2.20;;
72437;SDS011;60444;43.534;-5.674;2023-01-13T14:46:09;8.75;;;1.88;;
72437;SDS011;60444;43.534;-5.674;2023-01-13T14:48:35;9.80;;;1.93;;
72437;SDS011;60444;43.534;-5.674;2023-01-13T14:51:02;15.57;;;3.25;;
72437;SDS011;60444;43.534;-5.674;2023-01-13T14:53:42;12.55;;;2.42;;
72437;SDS011;60444;43.534;-5.674;2023-01-13T15:07:41;10.40;;;1.52;;
72437;SDS011;60444;43.534;-5.674;2023-01-13T15:13:02;11.80;;;2.27;;
72437;SDS011;60444;43.534;-5.674;2023-01-13T15:15:30;8.80;;;1.95;;
72437;SDS011;60444;43.534;-5.674;2023-01-13T15:17:58;9.93;;;2.00;;
72437;SDS011;60444;43.534;-5.674;2023-01-13T15:20:25;11.75;;;2.33;;
72437;SDS011;60444;43.534;-5.674;2023-01-13T15:22:52;8.48;;;1.50;;
72437;SDS011;60444;43.534;-5.674;2023-01-13T15:25:19;7.33;;;1.53;;
72437;SDS011;60444;43.534;-5.674;2023-01-13T15:27:46;8.95;;;1.75;;
72437;SDS011;60444;43.534;-5.674;2023-01-13T15:30:17;8.27;;;1.40;;
72437;SDS011;60444;43.534;-5.674;2023-01-13T15:32:45;12.23;;;1.90;;
72437;SDS011;60444;43.534;-5.674;2023-01-13T15:35:11;9.40;;;2.47;;
72437;SDS011;60444;43.534;-5.674;2023-01-13T15:37:41;9.65;;;2.20;;
72437;SDS011;60444;43.534;-5.674;2023-01-13T15:40:11;8.10;;;1.83;;
72437;SDS011;60444;43.534;-5.674;2023-01-13T15:42:38;8.30;;;1.65;;
72437;SDS011;60444;43.534;-5.674;2023-01-13T15:45:22;10.48;;;2.08;;
72437;SDS011;60444;43.534;-5.674;2023-01-13T15:48:06;15.00;;;2.30;;
72437;SDS011;60444;43.534;-5.674;2023-01-13T15:50:31;12.20;;;2.15;;
72437;SDS011;60444;43.534;-5.674;2023-01-13T15:52:57;14.87;;;2.73;;
72437;SDS011;60444;43.534;-5.674;2023-01-13T15:55:22;15.43;;;2.40;;
72437;SDS011;60444;43.534;-5.674;2023-01-13T15:57:51;19.35;;;2.60;;
72437;SDS011;60444;43.534;-5.674;2023-01-13T16:00:17;11.65;;;2.80;;
72437;SDS011;60444;43.534;-5.674;2023-01-13T16:02:44;17.50;;;3.67;;
72437;SDS011;60444;43.534;-5.674;2023-01-13T16:05:10;11.38;;;2.58;;
72437;SDS011;60444;43.534;-5.674;2023-01-13T16:07:35;12.40;;;2.70;;
72437;SDS011;60444;43.534;-5.674;2023-01-13T16:10:02;8.13;;;2.05;;
72437;SDS011;60444;43.534;-5.674;2023-01-13T16:12:29;8.20;;;1.90;;
72437;SDS011;60444;43.534;-5.674;2023-01-13T16:14:55;8.05;;;1.60;;
72437;SDS011;60444;43.534;-5.674;2023-01-13T16:17:22;8.80;;;1.40;;
72437;SDS011;60444;43.534;-5.674;2023-01-13T16:19:49;7.40;;;1.57;;
72437;SDS011;60444;43.534;-5.674;2023-01-13T16:22:16;8.65;;;1.80;;
72437;SDS011;60444;43.534;-5.674;2023-01-13T16:24:42;20.35;;;3.40;;
72437;SDS011;60444;43.534;-5.674;2023-01-13T16:27:16;9.35;;;1.98;;
72437;SDS011;60444;43.534;-5.674;2023-01-13T16:29:44;11.32;;;2.50;;
72437;SDS011;60444;43.534;-5.674;2023-01-13T16:32:10;18.87;;;3.37;;
72437;SDS011;60444;43.534;-5.674;2023-01-13T16:34:36;13.18;;;3.28;;
72437;SDS011;60444;43.534;-5.674;2023-01-13T16:37:02;8.70;;;2.00;;
72437;SDS011;60444;43.534;-5.674;2023-01-13T16:39:28;14.20;;;1.63;;
72437;SDS011;60444;43.534;-5.674;2023-01-13T16:41:54;11.70;;;2.38;;
72437;SDS011;60444;43.534;-5.674;2023-01-13T16:44:21;7.93;;;2.00;;
72437;SDS011;60444;43.534;-5.674;2023-01-13T16:46:46;12.10;;;1.90;;
72437;SDS011;60444;43.534;-5.674;2023-01-13T16:49:13;7.63;;;1.70;;
72437;SDS011;60444;43.534;-5.674;2023-01-13T16:51:40;10.10;;;2.15;;
72437;SDS011;60444;43.534;-5.674;2023-01-13T16:54:05;12.07;;;1.73;;
72437;SDS011;60444;43.534;-5.674;2023-01-13T16:56:32;11.93;;;2.40;;
72437;SDS011;60444;43.534;-5.674;2023-01-13T16:59:03;11.50;;;2.67;;
72437;SDS011;60444;43.534;-5.674;2023-01-13T17:01:42;15.05;;;3.20;;
72437;SDS011;60444;43.534;-5.674;2023-01-13T17:04:18;25.55;;;4.70;;
72437;SDS011;60444;43.534;-5.674;2023-01-13T17:06:59;15.47;;;4.20;;
72437;SDS011;60444;43.534;-5.674;2023-01-13T17:09:28;27.05;;;5.15;;
72437;SDS011;60444;43.534;-5.674;2023-01-13T17:11:54;25.73;;;5.25;;
72437;SDS011;60444;43.534;-5.674;2023-01-13T17:14:20;18.02;;;3.33;;
72437;SDS011;60444;43.534;-5.674;2023-01-13T17:16:48;11.27;;;3.05;;